Aérodrome :







RETROUVEZ-NOUS SUR...

 
LOGIN :

S'inscrire | Disclaimer

   EN    FR    IT 

 









Légende :    VFR   VFR Marginal   IFR   IFR Intensif   IFR Très Intensif
Visi : 
Plafond : 
>= 8 km
>= 3000ft
5 à 8 km
1000 à 3000 ft
1500m à 5 km
500 à 1000 ft
800 à 1500m
200 à 500 ft
< 800m
< 200 ft
Symboles :   Orages  Brouillard  Fortes neiges  Fortes précipitations  Vent > 20 kt







- Altitude de l'aérodrome : 11 ft


KGHG - Marshfield Municipal George Harlow Field

DERNIER METAR :
  • 250415Z AUTO 05010KT 10SM BKN022 19/15 A3029 RMK AO2

METARs EXPIRÉS :
  • 250355Z AUTO 05011KT 10SM FEW021 19/15 A3028 RMK AO2
  • 250335Z AUTO 06010KT 10SM CLR 19/15 A3028 RMK AO2
  • 250315Z AUTO 05008KT 10SM CLR 20/15 A3028 RMK AO2
  • 250255Z AUTO 06009KT 10SM CLR 20/14 A3028 RMK AO2
  • 250235Z AUTO 06008G14KT 10SM CLR 20/15 A3028 RMK AO2
  • 250215Z AUTO 06008KT 10SM CLR 20/15 A3028 RMK AO2
  • 250155Z AUTO 06007KT 10SM CLR 20/14 A3027 RMK AO2
  • 250135Z AUTO VRB05KT 10SM CLR 20/15 A3027 RMK AO2

TAF N/A
Pas de NOTAMs connus pour ce terrain.



MET'MAP, la Météo Aéronautique d'un coup d'oeil ! - Copyright ORBIFLY Décembre 2007 - Disclaimer

ORBIFLY MET'MAP TEAM :

Programmation & Développement : Alexandra Zaïnal
Conception & Développement : Baudouin d'Aumeries
Co-Programmation & Développement : Marc-Olivier Méhu
Soutien technique & logistique : Manuel Goepfert

Contact : metmap@orbifly.com




SOURCES & CREDITS :

   NOAA